createdAt,value
2022-09-14T00:02:08.065Z,73.81
2022-09-14T00:04:42.085Z,73.43
2022-09-14T00:07:14.093Z,73.92
2022-09-14T00:09:46.209Z,74.06
2022-09-14T00:12:18.343Z,74.07
2022-09-14T00:14:50.474Z,74.42
2022-09-14T00:17:22.485Z,74.17
2022-09-14T00:19:54.461Z,74.34
2022-09-14T00:22:26.500Z,74.46
2022-09-14T00:24:58.535Z,74.43
2022-09-14T00:27:30.604Z,74.82
2022-09-14T00:30:02.971Z,74.94
2022-09-14T00:32:35.423Z,75.22
2022-09-14T00:35:08.021Z,75.39
2022-09-14T00:37:40.350Z,76.01
2022-09-14T00:40:12.660Z,75.99
2022-09-14T00:42:45.921Z,75.96
2022-09-14T00:45:21.779Z,75.86
2022-09-14T00:47:54.604Z,75.79
2022-09-14T00:50:26.871Z,76.28
2022-09-14T00:52:59.579Z,76.28
2022-09-14T00:55:33.238Z,76.12
2022-09-14T00:58:05.474Z,76.19
2022-09-14T01:00:37.747Z,76.99
2022-09-14T01:03:09.899Z,77.46
2022-09-14T01:06:16.113Z,77.97
2022-09-14T01:09:41.892Z,78.10
2022-09-14T01:12:50.104Z,78.43
2022-09-14T01:15:56.592Z,78.42
2022-09-14T01:18:47.370Z,78.75
2022-09-14T01:21:35.239Z,78.70
2022-09-14T01:24:31.585Z,79.08
2022-09-14T01:27:25.353Z,78.39
2022-09-14T01:30:20.222Z,78.92
2022-09-14T01:33:19.671Z,79.08
2022-09-14T01:35:58.690Z,78.77
2022-09-14T01:38:49.163Z,79.40
2022-09-14T01:41:25.259Z,79.60
2022-09-14T01:44:13.681Z,79.61
2022-09-14T01:46:53.973Z,79.47
2022-09-14T01:49:32.337Z,79.73
2022-09-14T01:52:22.020Z,79.81
2022-09-14T01:55:23.017Z,80.38
2022-09-14T01:58:20.225Z,80.61
2022-09-14T02:00:56.821Z,81.02
2022-09-14T02:03:45.158Z,80.64
2022-09-14T02:06:29.171Z,81.22
2022-09-14T02:09:01.727Z,80.62
2022-09-14T02:11:33.803Z,80.25
2022-09-14T02:14:06.782Z,80.26
2022-09-14T02:16:40.359Z,80.52
2022-09-14T02:19:13.910Z,80.74
2022-09-14T02:21:46.096Z,80.25
2022-09-14T02:24:18.846Z,80.39
2022-09-14T02:26:53.329Z,80.34
2022-09-14T02:29:25.330Z,80.92
2022-09-14T02:32:43.943Z,80.19
2022-09-14T02:35:28.204Z,80.12
2022-09-14T02:38:40.701Z,80.90
2022-09-14T02:41:30.685Z,80.78
2022-09-14T02:44:24.805Z,81.16
2022-09-14T02:47:08.087Z,81.10
2022-09-14T02:49:52.694Z,81.22
2022-09-14T02:53:06.378Z,81.13
2022-09-14T02:55:50.167Z,81.12
2022-09-14T02:58:22.269Z,81.78
2022-09-14T03:00:54.379Z,81.92
2022-09-14T03:03:26.421Z,81.86
2022-09-14T03:05:58.410Z,81.85
2022-09-14T03:08:30.853Z,82.39
2022-09-14T03:11:03.158Z,82.19
2022-09-14T03:13:35.916Z,82.42
2022-09-14T03:16:11.752Z,82.77
2022-09-14T03:18:44.285Z,82.93
2022-09-14T03:21:17.709Z,82.92
2022-09-14T03:23:52.868Z,82.88
2022-09-14T03:26:27.573Z,82.91
2022-09-14T03:28:59.864Z,82.64
2022-09-14T03:31:33.263Z,82.98
2022-09-14T03:34:05.347Z,83.24
2022-09-14T03:36:37.303Z,83.23
2022-09-14T03:39:09.293Z,83.14
2022-09-14T03:41:41.202Z,83.60
2022-09-14T03:44:13.141Z,83.42
2022-09-14T03:46:45.237Z,83.58
2022-09-14T03:49:17.256Z,83.62
2022-09-14T03:51:49.157Z,83.76
2022-09-14T03:54:21.273Z,84.14
2022-09-14T03:56:54.168Z,83.97
2022-09-14T03:59:26.141Z,84.19
2022-09-14T04:01:58.107Z,84.49
2022-09-14T04:04:30.162Z,84.64
2022-09-14T04:07:02.059Z,84.64
2022-09-14T04:09:34.219Z,84.60
2022-09-14T04:12:06.609Z,84.52
2022-09-14T04:14:38.595Z,84.62
2022-09-14T04:17:10.586Z,84.33
2022-09-14T04:19:42.509Z,84.41
2022-09-14T04:22:14.410Z,84.55
2022-09-14T04:24:46.378Z,84.32
2022-09-14T04:27:18.315Z,84.35
2022-09-14T04:29:50.859Z,84.74
2022-09-14T04:32:22.760Z,84.79
2022-09-14T04:34:54.813Z,85.15
2022-09-14T04:37:26.775Z,85.21
2022-09-14T04:40:02.409Z,84.74
2022-09-14T04:42:34.365Z,84.96
2022-09-14T04:45:06.941Z,84.80
2022-09-14T04:47:39.115Z,84.91
2022-09-14T04:50:12.161Z,85.30
2022-09-14T04:52:44.123Z,85.17
2022-09-14T04:55:16.147Z,85.14
2022-09-14T04:57:48.052Z,85.22
2022-09-14T05:00:20.942Z,85.48
2022-09-14T05:02:52.887Z,85.05
2022-09-14T05:05:24.838Z,85.09
2022-09-14T05:07:56.778Z,85.23
2022-09-14T05:10:28.915Z,85.25
2022-09-14T05:13:00.820Z,85.58
2022-09-14T05:15:32.829Z,84.77
2022-09-14T05:18:05.160Z,85.12
2022-09-14T05:20:39.066Z,84.76
2022-09-14T05:23:11.589Z,84.13
2022-09-14T05:25:43.711Z,84.01
2022-09-14T05:28:15.588Z,83.59
2022-09-14T05:30:47.576Z,83.50
2022-09-14T05:33:20.622Z,83.47
2022-09-14T05:35:52.718Z,83.18
2022-09-14T05:38:24.624Z,83.18
2022-09-14T05:40:56.557Z,82.85
2022-09-14T05:43:29.938Z,82.17
2022-09-14T05:46:11.485Z,81.58
2022-09-14T05:48:44.188Z,81.10
2022-09-14T05:51:20.398Z,81.03
2022-09-14T05:53:57.890Z,80.85
2022-09-14T05:56:31.970Z,80.49
2022-09-14T05:59:04.408Z,79.21
2022-09-14T06:01:36.408Z,79.37
2022-09-14T06:04:11.385Z,79.20
2022-09-14T06:06:55.930Z,79.31
2022-09-14T06:09:35.529Z,79.16
2022-09-14T06:12:07.745Z,78.42
2022-09-14T06:14:40.845Z,78.55
2022-09-14T06:17:12.903Z,79.12
2022-09-14T06:19:44.789Z,78.29
2022-09-14T06:22:16.872Z,78.38
2022-09-14T06:24:48.840Z,78.17
2022-09-14T06:27:20.776Z,77.62
2022-09-14T06:29:53.924Z,77.42
2022-09-14T06:32:27.395Z,77.30
2022-09-14T06:34:59.701Z,76.82
2022-09-14T06:37:31.618Z,75.93
2022-09-14T06:40:04.833Z,76.33
2022-09-14T06:42:36.852Z,76.09
2022-09-14T06:45:09.140Z,76.29
2022-09-14T06:47:41.122Z,76.20
2022-09-14T06:50:13.638Z,75.71
2022-09-14T06:52:45.587Z,76.33
2022-09-14T06:55:17.577Z,76.41
2022-09-14T06:57:49.552Z,75.24
2022-09-14T07:00:21.678Z,74.55
2022-09-14T07:02:55.759Z,73.98
2022-09-14T07:05:28.064Z,73.81
2022-09-14T07:08:00.014Z,73.43
2022-09-14T07:10:31.934Z,73.18
2022-09-14T07:13:03.911Z,73.08
2022-09-14T07:15:35.807Z,72.53
2022-09-14T07:18:07.764Z,72.83
2022-09-14T07:20:39.723Z,72.77
2022-09-14T07:23:13.584Z,72.77
2022-09-14T07:25:45.562Z,72.46
2022-09-14T07:28:17.450Z,72.58
2022-09-14T07:30:49.406Z,71.33
2022-09-14T07:33:21.375Z,71.59
2022-09-14T07:35:53.377Z,70.68
2022-09-14T07:38:48.208Z,70.19
2022-09-14T07:41:18.260Z,70.07
2022-09-14T07:43:56.873Z,69.54
2022-09-14T07:46:33.259Z,68.73
2022-09-14T07:49:07.064Z,66.26
2022-09-14T07:51:40.028Z,67.31
2022-09-14T07:54:14.786Z,67.26
2022-09-14T07:56:47.166Z,66.70
2022-09-14T07:59:36.809Z,67.12
2022-09-14T08:02:11.310Z,66.41
2022-09-14T08:04:43.528Z,66.93
2022-09-14T08:07:18.188Z,66.68
2022-09-14T08:09:50.263Z,66.27
2022-09-14T08:12:22.553Z,65.17
2022-09-14T08:14:54.991Z,64.80
2022-09-14T08:17:26.945Z,64.15
2022-09-14T08:19:58.872Z,64.19
2022-09-14T08:22:30.812Z,64.04
2022-09-14T08:25:02.736Z,64.45
2022-09-14T08:27:34.722Z,64.35
2022-09-14T08:30:07.680Z,64.05
2022-09-14T08:32:39.609Z,63.68
2022-09-14T08:35:11.571Z,63.34
2022-09-14T08:37:43.470Z,62.18
2022-09-14T08:40:17.537Z,61.42
2022-09-14T08:42:50.872Z,59.92
2022-09-14T08:45:24.271Z,59.63
2022-09-14T08:47:58.833Z,61.13
2022-09-14T08:50:33.852Z,61.17
2022-09-14T08:53:09.076Z,62.31
2022-09-14T08:56:08.942Z,62.53
2022-09-14T08:59:17.300Z,62.23
2022-09-14T09:02:55.710Z,58.55
2022-09-14T09:05:33.519Z,57.87
2022-09-14T09:08:39.053Z,57.52
2022-09-14T09:11:18.768Z,56.27
2022-09-14T09:13:53.232Z,54.49
2022-09-14T09:16:27.308Z,52.97
2022-09-14T09:19:05.983Z,50.90
2022-09-14T09:21:46.284Z,51.32
2022-09-14T09:24:37.990Z,50.63
2022-09-14T09:27:15.479Z,49.09
2022-09-14T09:29:47.519Z,46.11
2022-09-14T09:32:24.915Z,46.09
2022-09-14T09:34:56.942Z,42.75
2022-09-14T09:37:34.919Z,39.69
2022-09-14T09:40:20.405Z,38.35
2022-09-14T09:43:06.013Z,34.66
2022-09-14T09:45:59.696Z,32.74
2022-09-14T09:48:44.363Z,30.25
2022-09-14T09:51:24.247Z,27.93
2022-09-14T09:54:15.382Z,28.25
2022-09-14T09:56:57.341Z,29.53
2022-09-14T09:59:42.372Z,29.43
2022-09-14T10:02:30.897Z,30.78
2022-09-14T10:05:21.588Z,31.90
2022-09-14T10:08:00.216Z,33.05
2022-09-14T10:10:34.890Z,33.86
2022-09-14T10:13:26.189Z,36.17
2022-09-14T10:16:18.915Z,38.05
2022-09-14T10:18:53.271Z,38.29
2022-09-14T10:21:26.479Z,39.38
2022-09-14T10:24:15.338Z,39.67
2022-09-14T10:26:47.314Z,40.07
2022-09-14T10:29:39.985Z,39.79
2022-09-14T10:32:23.640Z,40.56
2022-09-14T10:34:55.738Z,40.01
2022-09-14T10:37:47.470Z,41.25
2022-09-14T10:40:27.695Z,40.97
2022-09-14T10:43:04.012Z,41.60
2022-09-14T10:45:41.910Z,41.99
2022-09-14T10:48:43.642Z,42.40
2022-09-14T10:51:38.085Z,41.62
2022-09-14T10:54:41.573Z,40.10
2022-09-14T10:57:53.528Z,37.65
2022-09-14T11:00:26.895Z,35.84
2022-09-14T11:03:24.801Z,35.50
2022-09-14T11:06:34.576Z,35.63
2022-09-14T11:09:30.942Z,33.74
2022-09-14T11:12:30.889Z,34.00
2022-09-14T11:15:02.629Z,33.08
2022-09-14T11:17:48.890Z,32.13
2022-09-14T11:21:20.798Z,31.07
2022-09-14T11:24:12.061Z,29.21
2022-09-14T11:27:20.885Z,30.82
2022-09-14T11:30:03.862Z,31.06
2022-09-14T11:32:48.317Z,32.28
2022-09-14T11:35:45.611Z,34.28
2022-09-14T11:38:20.754Z,36.13
2022-09-14T11:41:43.439Z,36.75
2022-09-14T11:44:25.350Z,37.97
2022-09-14T11:47:07.220Z,37.15
2022-09-14T11:50:18.439Z,37.26
2022-09-14T11:53:11.081Z,38.11
2022-09-14T11:55:49.928Z,38.85
2022-09-14T11:58:29.758Z,38.79
2022-09-14T12:01:36.993Z,39.78
2022-09-14T12:04:14.491Z,40.07
2022-09-14T12:06:54.245Z,40.34
2022-09-14T12:09:26.091Z,41.16
2022-09-14T12:11:58.770Z,40.60
2022-09-14T12:14:40.663Z,40.85
2022-09-14T12:17:39.534Z,41.86
2022-09-14T12:20:44.672Z,41.98
2022-09-14T12:23:37.862Z,42.64
2022-09-14T12:26:18.986Z,42.41
2022-09-14T12:28:56.223Z,44.26
2022-09-14T12:31:48.004Z,44.35
2022-09-14T12:34:23.504Z,44.70
2022-09-14T12:36:57.945Z,43.18
2022-09-14T12:39:35.667Z,43.16
2022-09-14T12:42:30.090Z,42.80
2022-09-14T12:45:51.370Z,41.48
2022-09-14T12:48:48.280Z,41.77
2022-09-14T12:51:31.887Z,39.39
2022-09-14T12:54:09.979Z,38.48
2022-09-14T12:57:03.316Z,38.16
2022-09-14T13:00:09.950Z,37.09
2022-09-14T13:03:07.667Z,38.83
2022-09-14T13:05:44.508Z,39.88
2022-09-14T13:08:23.728Z,39.90
2022-09-14T13:10:55.787Z,41.33
2022-09-14T13:13:33.593Z,40.85
2022-09-14T13:16:07.396Z,40.04
2022-09-14T13:18:39.409Z,39.10
2022-09-14T13:21:24.078Z,40.14
2022-09-14T13:23:56.164Z,40.10
2022-09-14T13:26:31.708Z,41.15
2022-09-14T13:29:08.335Z,42.47
2022-09-14T13:31:40.647Z,42.38
2022-09-14T13:34:39.341Z,42.98
2022-09-14T13:37:14.921Z,43.02
2022-09-14T13:39:52.684Z,43.39
2022-09-14T13:42:25.623Z,43.45
2022-09-14T13:44:57.693Z,44.74
2022-09-14T13:47:29.812Z,46.99
2022-09-14T13:50:01.969Z,47.97
2022-09-14T13:53:00.566Z,48.32
2022-09-14T13:55:33.183Z,48.83
2022-09-14T13:58:09.291Z,50.51
2022-09-14T14:00:53.332Z,50.74
2022-09-14T14:03:33.715Z,50.54
2022-09-14T14:06:28.494Z,49.52
2022-09-14T14:09:11.450Z,49.72
2022-09-14T14:11:46.982Z,49.81
2022-09-14T14:14:31.145Z,49.69
2022-09-14T14:17:23.995Z,49.40
2022-09-14T14:19:58.912Z,50.05
2022-09-14T14:22:35.654Z,49.44
2022-09-14T14:25:28.876Z,48.66
2022-09-14T14:28:04.246Z,48.09
2022-09-14T14:30:40.365Z,46.98
2022-09-14T14:33:20.625Z,47.94
2022-09-14T14:35:54.527Z,48.40
2022-09-14T14:38:26.570Z,48.19
2022-09-14T14:40:58.684Z,48.38
2022-09-14T14:43:31.206Z,47.38
2022-09-14T14:46:06.098Z,48.89
2022-09-14T14:48:38.400Z,48.62
2022-09-14T14:51:15.329Z,47.12
2022-09-14T14:53:47.475Z,47.37
2022-09-14T14:56:19.795Z,47.65
2022-09-14T14:58:51.807Z,47.94
2022-09-14T15:01:23.959Z,45.75
2022-09-14T15:03:56.193Z,47.57
2022-09-14T15:06:28.644Z,46.98
2022-09-14T15:09:00.751Z,46.24
2022-09-14T15:11:32.795Z,46.26
2022-09-14T15:14:05.262Z,46.31
2022-09-14T15:16:37.348Z,45.68
2022-09-14T15:19:10.710Z,45.90
2022-09-14T15:21:44.087Z,44.64
2022-09-14T15:24:16.017Z,45.24
2022-09-14T15:26:48.216Z,46.41
2022-09-14T15:29:20.182Z,45.89
2022-09-14T15:31:52.376Z,47.15
2022-09-14T15:34:24.467Z,46.95
2022-09-14T15:36:57.619Z,47.37
2022-09-14T15:39:31.664Z,47.88
2022-09-14T15:42:03.916Z,48.61
2022-09-14T15:44:35.954Z,48.94
2022-09-14T15:47:08.221Z,48.58
2022-09-14T15:49:40.666Z,48.37
2022-09-14T15:52:12.919Z,48.71
2022-09-14T15:54:44.927Z,47.16
2022-09-14T15:57:16.940Z,47.65
2022-09-14T15:59:48.854Z,47.14
2022-09-14T16:02:20.852Z,46.86
2022-09-14T16:04:53.062Z,48.42
2022-09-14T16:07:25.405Z,50.28
2022-09-14T16:09:59.066Z,50.41
2022-09-14T16:12:31.209Z,50.07
2022-09-14T16:15:03.209Z,50.28
2022-09-14T16:17:35.208Z,50.81
2022-09-14T16:20:10.334Z,51.54
2022-09-14T16:22:42.352Z,50.18
2022-09-14T16:25:15.782Z,50.01
2022-09-14T16:27:49.061Z,51.32
2022-09-14T16:30:21.058Z,51.97
2022-09-14T16:32:53.183Z,51.94
2022-09-14T16:35:25.636Z,52.75
2022-09-14T16:37:57.656Z,53.12
2022-09-14T16:40:29.667Z,52.82
2022-09-14T16:43:01.757Z,52.93
2022-09-14T16:45:33.799Z,54.64
2022-09-14T16:48:05.966Z,54.13
2022-09-14T16:50:37.887Z,54.20
2022-09-14T16:53:09.881Z,54.51
2022-09-14T16:55:41.836Z,54.34
2022-09-14T16:58:13.908Z,54.97
2022-09-14T17:00:46.039Z,55.12
2022-09-14T17:03:18.013Z,54.76
2022-09-14T17:05:50.271Z,55.80
2022-09-14T17:08:22.242Z,55.74
2022-09-14T17:10:54.178Z,55.91
2022-09-14T17:13:27.176Z,56.25
2022-09-14T17:16:07.207Z,56.33
2022-09-14T17:18:42.858Z,56.25
2022-09-14T17:21:24.978Z,56.56
2022-09-14T17:23:57.138Z,57.27
2022-09-14T17:26:29.056Z,57.09
2022-09-14T17:29:02.724Z,57.07
2022-09-14T17:31:39.378Z,56.94
2022-09-14T17:34:13.829Z,56.85
2022-09-14T17:36:46.271Z,57.66
2022-09-14T17:39:18.315Z,57.39
2022-09-14T17:41:50.278Z,57.81
2022-09-14T17:44:25.827Z,58.35
2022-09-14T17:46:58.159Z,58.54
2022-09-14T17:49:30.200Z,58.89
2022-09-14T17:52:03.183Z,59.18
2022-09-14T17:54:35.157Z,59.88
2022-09-14T17:57:07.042Z,60.07
2022-09-14T17:59:39.025Z,59.85
2022-09-14T18:02:11.255Z,60.07
2022-09-14T18:04:48.450Z,60.53
2022-09-14T18:07:20.592Z,60.72
2022-09-14T18:09:52.584Z,61.07
2022-09-14T18:12:25.008Z,61.33
2022-09-14T18:14:57.058Z,61.91
2022-09-14T18:17:28.975Z,61.40
2022-09-14T18:20:01.001Z,61.90
2022-09-14T18:22:32.945Z,61.68
2022-09-14T18:25:07.663Z,61.48
2022-09-14T18:27:40.292Z,61.27
2022-09-14T18:30:12.880Z,61.93
2022-09-14T18:32:46.318Z,61.89
2022-09-14T18:35:18.227Z,61.88
2022-09-14T18:37:50.144Z,61.28
2022-09-14T18:40:22.174Z,61.46
2022-09-14T18:42:54.219Z,61.68
2022-09-14T18:45:26.177Z,60.91
2022-09-14T18:47:58.171Z,61.28
2022-09-14T18:50:30.319Z,61.57
2022-09-14T18:53:02.228Z,62.08
2022-09-14T18:55:34.270Z,61.92
2022-09-14T18:58:06.150Z,61.71
2022-09-14T19:00:45.733Z,61.23
2022-09-14T19:03:17.660Z,61.15
2022-09-14T19:05:49.816Z,61.74
2022-09-14T19:08:22.641Z,61.75
2022-09-14T19:10:54.538Z,62.46
2022-09-14T19:13:29.945Z,62.82
2022-09-14T19:16:11.976Z,62.52
2022-09-14T19:18:46.536Z,62.76
2022-09-14T19:21:28.315Z,62.53
2022-09-14T19:24:07.681Z,62.35
2022-09-14T19:26:51.575Z,62.66
2022-09-14T19:29:25.120Z,63.08
2022-09-14T19:32:00.773Z,63.13
2022-09-14T19:34:33.015Z,63.74
2022-09-14T19:37:05.488Z,64.12
2022-09-14T19:39:37.631Z,63.97
2022-09-14T19:42:10.098Z,65.11
2022-09-14T19:44:42.059Z,64.84
2022-09-14T19:47:14.050Z,64.86
2022-09-14T19:49:46.044Z,66.23
2022-09-14T19:52:18.046Z,66.12
2022-09-14T19:54:49.998Z,65.94
2022-09-14T19:57:22.097Z,65.93
2022-09-14T19:59:54.342Z,66.15
2022-09-14T20:02:26.559Z,66.52
2022-09-14T20:04:58.609Z,66.48
2022-09-14T20:07:30.636Z,67.57
2022-09-14T20:10:02.624Z,67.40
2022-09-14T20:12:34.906Z,66.99
2022-09-14T20:15:07.622Z,67.13
2022-09-14T20:17:39.640Z,67.07
2022-09-14T20:20:11.841Z,67.58
2022-09-14T20:22:44.131Z,66.96
2022-09-14T20:25:16.157Z,66.95
2022-09-14T20:27:48.146Z,66.82
2022-09-14T20:30:20.637Z,66.58
2022-09-14T20:32:52.867Z,66.53
2022-09-14T20:35:24.790Z,66.26
2022-09-14T20:37:56.725Z,66.38
2022-09-14T20:40:28.844Z,66.34
2022-09-14T20:43:01.105Z,66.26
2022-09-14T20:45:32.983Z,66.14
2022-09-14T20:48:04.954Z,66.48
2022-09-14T20:50:36.875Z,65.76
2022-09-14T20:53:08.939Z,66.74
2022-09-14T20:55:41.120Z,66.95
2022-09-14T20:58:13.022Z,67.06
2022-09-14T21:00:46.196Z,66.90
2022-09-14T21:03:18.248Z,66.87
2022-09-14T21:05:53.772Z,67.12
2022-09-14T21:08:26.045Z,66.88
2022-09-14T21:10:58.040Z,67.24
2022-09-14T21:13:30.477Z,67.29
2022-09-14T21:16:19.588Z,67.82
2022-09-14T21:18:58.614Z,67.89
2022-09-14T21:21:30.946Z,67.73
2022-09-14T21:24:06.002Z,67.79
2022-09-14T21:26:42.550Z,67.67
2022-09-14T21:29:23.628Z,68.38
2022-09-14T21:31:55.849Z,68.54
2022-09-14T21:34:27.864Z,69.21
2022-09-14T21:36:59.832Z,68.96
2022-09-14T21:39:32.036Z,69.16
2022-09-14T21:42:04.192Z,69.23
2022-09-14T21:44:37.924Z,68.94
2022-09-14T21:47:09.810Z,68.99
2022-09-14T21:49:41.832Z,69.31
2022-09-14T21:52:13.879Z,69.63
2022-09-14T21:54:45.816Z,69.43
2022-09-14T21:57:17.738Z,69.21
2022-09-14T21:59:49.648Z,69.01
2022-09-14T22:02:21.990Z,68.92
2022-09-14T22:04:53.998Z,68.53
2022-09-14T22:07:25.938Z,68.85
2022-09-14T22:09:57.838Z,69.20
2022-09-14T22:12:31.061Z,69.38
2022-09-14T22:15:02.996Z,69.06
2022-09-14T22:17:35.277Z,69.14
2022-09-14T22:20:08.000Z,69.44
2022-09-14T22:22:40.354Z,69.09
2022-09-14T22:25:12.605Z,69.13
2022-09-14T22:27:44.556Z,68.88
2022-09-14T22:30:16.568Z,68.79
2022-09-14T22:32:48.457Z,69.65
2022-09-14T22:35:20.446Z,69.85
2022-09-14T22:37:52.376Z,69.74
2022-09-14T22:40:24.443Z,69.71
2022-09-14T22:42:56.423Z,69.80
2022-09-14T22:45:28.328Z,70.20
2022-09-14T22:48:00.239Z,70.82
2022-09-14T22:50:32.183Z,70.74
2022-09-14T22:53:04.103Z,70.73
2022-09-14T22:55:40.902Z,71.01
2022-09-14T22:58:22.070Z,72.05
2022-09-14T23:00:54.317Z,72.09
2022-09-14T23:03:26.771Z,72.31
2022-09-14T23:06:01.789Z,71.96
2022-09-14T23:08:35.936Z,72.29
2022-09-14T23:11:11.353Z,72.50
2022-09-14T23:13:43.411Z,73.16
2022-09-14T23:16:19.004Z,73.06
2022-09-14T23:19:03.304Z,73.49
2022-09-14T23:21:36.125Z,74.33
2022-09-14T23:24:08.266Z,74.44
2022-09-14T23:26:40.649Z,74.43
2022-09-14T23:29:16.894Z,74.44
2022-09-14T23:31:49.062Z,74.78
2022-09-14T23:34:21.108Z,75.13
2022-09-14T23:36:53.013Z,75.25
2022-09-14T23:39:25.742Z,75.46
2022-09-14T23:41:57.907Z,75.55
2022-09-14T23:44:29.888Z,75.08
2022-09-14T23:47:02.307Z,75.45
2022-09-14T23:49:34.189Z,75.23
2022-09-14T23:52:06.097Z,75.85
2022-09-14T23:54:38.003Z,75.79
2022-09-14T23:57:09.904Z,76.34
2022-09-14T23:59:41.918Z,76.38
